createdAt,value
2022-11-24T00:00:31.413Z,99.25
2022-11-24T00:02:58.182Z,99.34
2022-11-24T00:05:24.671Z,100.00
2022-11-24T00:07:51.155Z,99.89
2022-11-24T00:10:17.652Z,100.00
2022-11-24T00:12:44.038Z,100.00
2022-11-24T00:15:10.679Z,100.00
2022-11-24T00:17:37.058Z,100.00
2022-11-24T00:20:03.692Z,100.00
2022-11-24T00:22:30.712Z,100.00
2022-11-24T00:24:57.104Z,100.00
2022-11-24T00:27:23.479Z,100.00
2022-11-24T00:29:49.891Z,100.00
2022-11-24T00:32:16.243Z,100.00
2022-11-24T00:34:42.611Z,100.00
2022-11-24T00:37:09.018Z,100.00
2022-11-24T00:39:35.404Z,100.00
2022-11-24T00:42:02.005Z,100.00
2022-11-24T00:44:28.398Z,100.00
2022-11-24T00:46:54.854Z,100.00
2022-11-24T00:49:21.309Z,100.00
2022-11-24T00:51:47.796Z,100.00
2022-11-24T00:54:14.263Z,100.00
2022-11-24T00:56:40.703Z,100.00
2022-11-24T00:59:07.284Z,100.00
2022-11-24T01:01:34.031Z,100.00
2022-11-24T01:04:03.760Z,100.00
2022-11-24T01:06:30.755Z,100.00
2022-11-24T01:08:57.570Z,100.00
2022-11-24T01:11:30.084Z,100.00
2022-11-24T01:13:58.884Z,100.00
2022-11-24T01:16:29.181Z,100.00
2022-11-24T01:18:55.972Z,100.00
2022-11-24T01:21:22.731Z,100.00
2022-11-24T01:23:49.193Z,100.00
2022-11-24T01:26:18.597Z,100.00
2022-11-24T01:28:47.567Z,100.00
2022-11-24T01:31:14.719Z,100.00
2022-11-24T01:33:41.243Z,100.00
2022-11-24T01:36:07.696Z,100.00
2022-11-24T01:38:34.156Z,100.00
2022-11-24T01:41:06.787Z,100.00
2022-11-24T01:43:33.607Z,100.00
2022-11-24T01:46:15.125Z,100.00
2022-11-24T01:48:44.684Z,100.00
2022-11-24T01:51:13.867Z,100.00
2022-11-24T01:53:42.199Z,100.00
2022-11-24T01:56:08.923Z,100.00
2022-11-24T01:58:36.210Z,100.00
2022-11-24T02:01:02.881Z,100.00
2022-11-24T02:03:34.547Z,100.00
2022-11-24T02:06:13.125Z,100.00
2022-11-24T02:08:47.171Z,100.00
2022-11-24T02:11:13.604Z,100.00
2022-11-24T02:13:41.142Z,100.00
2022-11-24T02:16:08.753Z,100.00
2022-11-24T02:18:37.010Z,100.00
2022-11-24T02:21:03.526Z,100.00
2022-11-24T02:23:45.085Z,100.00
2022-11-24T02:26:19.576Z,100.00
2022-11-24T02:28:46.240Z,100.00
2022-11-24T02:31:12.948Z,100.00
2022-11-24T02:33:39.722Z,100.00
2022-11-24T02:36:06.479Z,100.00
2022-11-24T02:38:34.500Z,100.00
2022-11-24T02:41:09.216Z,100.00
2022-11-24T02:43:39.799Z,100.00
2022-11-24T02:46:06.816Z,100.00
2022-11-24T02:48:33.533Z,100.00
2022-11-24T02:50:59.927Z,100.00
2022-11-24T02:53:26.300Z,100.00
2022-11-24T02:55:53.184Z,100.00
2022-11-24T02:58:19.612Z,100.00
2022-11-24T03:00:46.081Z,100.00
2022-11-24T03:03:12.648Z,100.00
2022-11-24T03:05:39.132Z,100.00
2022-11-24T03:08:05.639Z,100.00
2022-11-24T03:10:32.313Z,100.00
2022-11-24T03:12:58.710Z,100.00
2022-11-24T03:15:25.133Z,100.00
2022-11-24T03:17:54.475Z,100.00
2022-11-24T03:20:20.946Z,100.00
2022-11-24T03:22:47.354Z,100.00
2022-11-24T03:25:13.755Z,100.00
2022-11-24T03:27:40.163Z,100.00
2022-11-24T03:30:07.577Z,100.00
2022-11-24T03:32:34.021Z,100.00
2022-11-24T03:35:00.386Z,100.00
2022-11-24T03:37:26.790Z,100.00
2022-11-24T03:39:53.181Z,100.00
2022-11-24T03:42:19.560Z,100.00
2022-11-24T03:44:45.928Z,100.00
2022-11-24T03:47:12.502Z,100.00
2022-11-24T03:49:39.039Z,100.00
2022-11-24T03:52:08.190Z,100.00
2022-11-24T03:54:35.471Z,100.00
2022-11-24T03:57:02.085Z,100.00
2022-11-24T03:59:28.454Z,100.00
2022-11-24T04:01:55.034Z,100.00
2022-11-24T04:04:21.448Z,100.00
2022-11-24T04:06:47.826Z,100.00
2022-11-24T04:09:14.280Z,100.00
2022-11-24T04:12:06.843Z,100.00
2022-11-24T04:14:33.481Z,100.00
2022-11-24T04:17:00.117Z,100.00
2022-11-24T04:19:26.634Z,100.00
2022-11-24T04:21:53.095Z,100.00
2022-11-24T04:24:19.453Z,100.00
2022-11-24T04:26:45.823Z,100.00
2022-11-24T04:29:12.261Z,100.00
2022-11-24T04:31:38.722Z,100.00
2022-11-24T04:34:05.158Z,100.00
2022-11-24T04:36:31.594Z,100.00
2022-11-24T04:39:23.333Z,100.00
2022-11-24T04:41:44.406Z,100.00
2022-11-24T04:44:10.775Z,100.00
2022-11-24T04:46:37.174Z,100.00
2022-11-24T04:49:03.603Z,100.00
2022-11-24T04:51:29.989Z,100.00
2022-11-24T04:53:56.428Z,100.00
2022-11-24T04:56:23.082Z,100.00
2022-11-24T04:58:49.760Z,100.00
2022-11-24T05:01:16.278Z,100.00
2022-11-24T05:03:42.740Z,100.00
2022-11-24T05:06:09.124Z,100.00
2022-11-24T05:08:35.646Z,100.00
2022-11-24T05:11:06.233Z,100.00
2022-11-24T05:13:32.931Z,100.00
2022-11-24T05:16:00.196Z,100.00
2022-11-24T05:18:26.678Z,100.00
2022-11-24T05:20:53.041Z,100.00
2022-11-24T05:23:19.436Z,100.00
2022-11-24T05:25:47.734Z,100.00
2022-11-24T05:28:14.491Z,100.00
2022-11-24T05:30:42.012Z,100.00
2022-11-24T05:33:12.537Z,100.00
2022-11-24T05:35:38.931Z,100.00
2022-11-24T05:38:05.303Z,100.00
2022-11-24T05:40:31.749Z,100.00
2022-11-24T05:42:58.208Z,100.00
2022-11-24T05:45:24.701Z,100.00
2022-11-24T05:47:51.511Z,100.00
2022-11-24T05:50:20.181Z,100.00
2022-11-24T05:52:46.987Z,100.00
2022-11-24T05:55:19.342Z,100.00
2022-11-24T05:57:45.795Z,100.00
2022-11-24T06:00:13.189Z,100.00
2022-11-24T06:02:39.783Z,100.00
2022-11-24T06:05:06.477Z,100.00
2022-11-24T06:07:32.940Z,100.00
2022-11-24T06:09:59.417Z,100.00
2022-11-24T06:12:25.835Z,100.00
2022-11-24T06:14:52.447Z,100.00
2022-11-24T06:17:19.022Z,100.00
2022-11-24T06:19:47.852Z,100.00
2022-11-24T06:22:14.359Z,100.00
2022-11-24T06:24:40.802Z,100.00
2022-11-24T06:27:07.672Z,100.00
2022-11-24T06:29:34.104Z,100.00
2022-11-24T06:32:00.607Z,100.00
2022-11-24T06:34:27.077Z,100.00
2022-11-24T06:36:53.451Z,100.00
2022-11-24T06:39:19.834Z,100.00
2022-11-24T06:41:46.289Z,100.00
2022-11-24T06:44:12.696Z,100.00
2022-11-24T06:46:39.128Z,100.00
2022-11-24T06:49:05.654Z,100.00
2022-11-24T06:51:32.046Z,100.00
2022-11-24T06:53:58.492Z,100.00
2022-11-24T06:56:25.158Z,100.00
2022-11-24T06:58:53.146Z,100.00
2022-11-24T07:01:22.002Z,100.00
2022-11-24T07:03:49.243Z,100.00
2022-11-24T07:06:16.260Z,100.00
2022-11-24T07:08:42.846Z,100.00
2022-11-24T07:11:11.568Z,100.00
2022-11-24T07:13:38.040Z,100.00
2022-11-24T07:16:31.211Z,100.00
2022-11-24T07:18:58.312Z,100.00
2022-11-24T07:21:25.997Z,100.00
2022-11-24T07:23:54.195Z,100.00
2022-11-24T07:26:21.218Z,100.00
2022-11-24T07:28:47.852Z,100.00
2022-11-24T07:31:17.234Z,100.00
2022-11-24T07:33:43.738Z,100.00
2022-11-24T07:36:10.118Z,100.00
2022-11-24T07:38:36.791Z,100.00
2022-11-24T07:41:05.999Z,100.00
2022-11-24T07:43:33.456Z,100.00
2022-11-24T07:46:00.218Z,100.00
2022-11-24T07:48:26.979Z,100.00
2022-11-24T07:50:56.036Z,100.00
2022-11-24T07:53:22.867Z,100.00
2022-11-24T07:55:56.780Z,100.00
2022-11-24T07:58:24.769Z,100.00
2022-11-24T08:00:54.050Z,100.00
2022-11-24T08:03:20.635Z,100.00
2022-11-24T08:08:43.743Z,100.00
2022-11-24T08:11:15.629Z,100.00
2022-11-24T08:13:42.514Z,100.00
2022-11-24T08:16:13.836Z,100.00
2022-11-24T08:18:41.185Z,100.00
2022-11-24T08:21:12.323Z,100.00
2022-11-24T08:23:38.907Z,100.00
2022-11-24T08:26:10.925Z,100.00
2022-11-24T08:28:38.108Z,100.00
2022-11-24T08:31:06.687Z,100.00
2022-11-24T08:33:33.125Z,100.00
2022-11-24T08:36:04.522Z,100.00
2022-11-24T08:38:30.963Z,100.00
2022-11-24T08:41:09.710Z,100.00
2022-11-24T08:43:36.679Z,100.00
2022-11-24T08:46:06.173Z,100.00
2022-11-24T08:48:33.296Z,100.00
2022-11-24T08:50:59.848Z,100.00
2022-11-24T08:53:26.341Z,100.00
2022-11-24T08:55:52.805Z,100.00
2022-11-24T08:58:21.955Z,100.00
2022-11-24T09:00:49.887Z,100.00
2022-11-24T09:03:16.389Z,100.00
2022-11-24T09:05:51.713Z,100.00
2022-11-24T09:08:18.919Z,100.00
2022-11-24T09:10:45.647Z,100.00
2022-11-24T09:13:12.181Z,100.00
2022-11-24T09:15:38.596Z,100.00
2022-11-24T09:18:05.442Z,99.29
2022-11-24T09:20:31.904Z,99.61
2022-11-24T09:22:58.340Z,100.00
2022-11-24T09:25:24.764Z,99.50
2022-11-24T09:27:51.232Z,100.00
2022-11-24T09:30:17.934Z,99.46
2022-11-24T09:32:44.341Z,99.80
2022-11-24T09:35:10.760Z,99.93
2022-11-24T09:37:37.271Z,99.90
2022-11-24T09:40:04.028Z,99.64
2022-11-24T09:42:41.247Z,100.00
2022-11-24T09:45:13.820Z,99.66
2022-11-24T09:47:52.266Z,99.22
2022-11-24T09:50:24.872Z,99.66
2022-11-24T09:53:03.677Z,100.00
2022-11-24T09:55:38.409Z,99.65
2022-11-24T09:58:35.700Z,99.62
2022-11-24T10:01:05.781Z,99.94
2022-11-24T10:03:34.677Z,99.33
2022-11-24T10:06:04.370Z,100.00
2022-11-24T10:08:43.172Z,99.30
2022-11-24T10:11:15.714Z,99.18
2022-11-24T10:14:02.909Z,99.16
2022-11-24T10:16:35.377Z,99.00
2022-11-24T10:19:14.312Z,98.79
2022-11-24T10:22:06.963Z,99.58
2022-11-24T10:25:01.324Z,98.52
2022-11-24T10:27:37.980Z,98.27
2022-11-24T10:30:12.935Z,97.37
2022-11-24T10:32:43.065Z,98.50
2022-11-24T10:35:21.618Z,98.58
2022-11-24T10:38:26.631Z,98.90
2022-11-24T10:41:03.276Z,97.91
2022-11-24T10:43:29.823Z,97.80
2022-11-24T10:46:16.777Z,97.49
2022-11-24T10:48:51.060Z,97.21
2022-11-24T10:51:36.896Z,97.65
2022-11-24T10:54:26.900Z,96.68
2022-11-24T10:56:54.299Z,97.01
2022-11-24T10:59:35.928Z,97.07
2022-11-24T11:02:04.017Z,97.25
2022-11-24T11:04:31.669Z,95.91
2022-11-24T11:07:13.778Z,97.07
2022-11-24T11:09:40.256Z,96.64
2022-11-24T11:12:42.040Z,97.99
2022-11-24T11:15:21.207Z,96.35
2022-11-24T11:17:50.391Z,96.02
2022-11-24T11:20:19.631Z,96.15
2022-11-24T11:22:48.110Z,96.00
2022-11-24T11:25:17.929Z,96.56
2022-11-24T11:27:44.324Z,96.77
2022-11-24T11:35:51.173Z,95.86
2022-11-24T11:38:17.788Z,95.96
2022-11-24T11:40:44.340Z,94.56
2022-11-24T11:43:28.948Z,94.96
2022-11-24T11:46:02.204Z,94.45
2022-11-24T11:48:40.820Z,92.93
2022-11-24T11:51:28.086Z,92.99
2022-11-24T11:54:27.008Z,93.04
2022-11-24T11:57:30.691Z,92.87
2022-11-24T12:00:12.688Z,92.20
2022-11-24T12:02:46.105Z,92.57
2022-11-24T12:05:30.480Z,91.22
2022-11-24T12:08:23.507Z,90.80
2022-11-24T12:11:09.626Z,91.96
2022-11-24T12:13:48.151Z,91.37
2022-11-24T12:16:45.591Z,91.88
2022-11-24T12:19:24.056Z,90.43
2022-11-24T12:21:53.468Z,90.74
2022-11-24T12:24:50.560Z,90.52
2022-11-24T12:27:32.184Z,89.83
2022-11-24T12:30:04.484Z,90.52
2022-11-24T12:33:12.235Z,89.10
2022-11-24T12:35:45.683Z,89.42
2022-11-24T12:38:41.010Z,89.74
2022-11-24T12:41:41.794Z,89.67
2022-11-24T12:44:31.000Z,89.01
2022-11-24T12:47:10.028Z,88.00
2022-11-24T12:49:47.250Z,88.47
2022-11-24T12:52:24.372Z,89.03
2022-11-24T12:54:50.836Z,87.75
2022-11-24T12:57:30.847Z,88.17
2022-11-24T13:00:08.439Z,87.85
2022-11-24T13:02:47.057Z,88.77
2022-11-24T13:05:28.026Z,89.11
2022-11-24T13:08:03.553Z,87.29
2022-11-24T13:13:28.987Z,88.19
2022-11-24T13:18:57.287Z,87.94
2022-11-24T13:21:42.879Z,88.66
2022-11-24T13:24:19.267Z,87.87
2022-11-24T13:26:49.006Z,88.73
2022-11-24T13:29:27.827Z,88.89
2022-11-24T13:31:55.489Z,88.65
2022-11-24T13:34:40.276Z,87.62
2022-11-24T13:37:26.833Z,88.18
2022-11-24T13:40:23.225Z,87.89
2022-11-24T13:43:12.842Z,87.90
2022-11-24T13:45:39.247Z,87.03
2022-11-24T13:48:21.650Z,88.15
2022-11-24T13:50:50.607Z,87.76
2022-11-24T13:53:35.575Z,88.79
2022-11-24T13:56:14.922Z,88.38
2022-11-24T13:58:44.196Z,87.13
2022-11-24T14:01:13.579Z,87.88
2022-11-24T14:06:51.303Z,87.37
2022-11-24T14:09:43.672Z,87.90
2022-11-24T14:12:14.187Z,87.69
2022-11-24T14:14:41.465Z,88.08
2022-11-24T14:17:15.630Z,87.90
2022-11-24T14:19:47.242Z,86.42
2022-11-24T14:22:26.904Z,85.92
2022-11-24T14:24:57.842Z,85.90
2022-11-24T14:27:30.625Z,84.88
2022-11-24T14:30:21.062Z,85.74
2022-11-24T14:32:58.075Z,84.91
2022-11-24T14:35:29.187Z,84.73
2022-11-24T14:37:55.943Z,83.94
2022-11-24T14:40:38.722Z,84.78
2022-11-24T14:43:29.978Z,84.80
2022-11-24T14:46:00.377Z,84.53
2022-11-24T14:48:50.646Z,83.65
2022-11-24T14:51:24.127Z,84.74
2022-11-24T14:53:56.786Z,84.35
2022-11-24T14:56:26.233Z,84.62
2022-11-24T14:58:54.134Z,84.67
2022-11-24T15:01:22.346Z,84.50
2022-11-24T15:04:13.056Z,85.31
2022-11-24T15:06:49.732Z,85.93
2022-11-24T15:09:30.556Z,86.46
2022-11-24T15:11:57.398Z,85.66
2022-11-24T15:14:36.246Z,86.34
2022-11-24T15:17:02.957Z,85.14
2022-11-24T15:19:32.903Z,86.31
2022-11-24T15:21:59.523Z,86.89
2022-11-24T15:24:26.018Z,86.52
2022-11-24T15:27:00.114Z,86.49
2022-11-24T15:29:26.723Z,86.76
2022-11-24T15:31:53.303Z,86.97
2022-11-24T15:34:19.842Z,86.87
2022-11-24T15:36:46.259Z,87.27
2022-11-24T15:39:12.797Z,87.07
2022-11-24T15:41:40.520Z,87.39
2022-11-24T15:44:07.800Z,87.41
2022-11-24T15:46:38.057Z,87.16
2022-11-24T15:49:05.141Z,87.92
2022-11-24T15:51:31.594Z,88.03
2022-11-24T15:54:01.165Z,87.83
2022-11-24T15:56:33.272Z,88.67
2022-11-24T15:59:01.031Z,88.26
2022-11-24T16:01:32.932Z,88.79
2022-11-24T16:04:08.606Z,88.75
2022-11-24T16:06:35.030Z,88.89
2022-11-24T16:09:01.643Z,89.97
2022-11-24T16:11:28.068Z,89.49
2022-11-24T16:13:57.291Z,89.31
2022-11-24T16:16:25.154Z,88.91
2022-11-24T16:18:51.691Z,88.61
2022-11-24T16:21:18.149Z,89.98
2022-11-24T16:23:45.553Z,90.29
2022-11-24T16:26:12.140Z,90.74
2022-11-24T16:28:38.708Z,90.82
2022-11-24T16:31:05.215Z,90.15
2022-11-24T16:33:31.726Z,91.20
2022-11-24T16:35:58.574Z,90.96
2022-11-24T16:38:24.983Z,90.82
2022-11-24T16:40:56.190Z,90.21
2022-11-24T16:43:22.647Z,91.51
2022-11-24T16:46:15.569Z,91.87
2022-11-24T16:48:42.043Z,90.76
2022-11-24T16:51:11.929Z,91.29
2022-11-24T16:53:39.218Z,90.74
2022-11-24T16:56:06.394Z,91.43
2022-11-24T16:58:32.807Z,91.14
2022-11-24T17:01:04.300Z,91.88
2022-11-24T17:03:33.404Z,92.94
2022-11-24T17:06:00.783Z,92.31
2022-11-24T17:08:30.641Z,90.98
2022-11-24T17:10:57.046Z,92.13
2022-11-24T17:13:24.162Z,92.57
2022-11-24T17:15:54.169Z,91.90
2022-11-24T17:18:25.406Z,92.61
2022-11-24T17:20:52.273Z,93.64
2022-11-24T17:23:19.628Z,93.58
2022-11-24T17:25:46.197Z,92.11
2022-11-24T17:28:12.679Z,93.58
2022-11-24T17:30:39.081Z,94.29
2022-11-24T17:33:05.754Z,93.34
2022-11-24T17:35:34.111Z,93.53
2022-11-24T17:38:01.187Z,92.55
2022-11-24T17:40:29.276Z,94.43
2022-11-24T17:43:00.235Z,94.33
2022-11-24T17:45:27.947Z,94.36
2022-11-24T17:47:54.959Z,92.93
2022-11-24T17:50:25.668Z,93.94
2022-11-24T17:52:53.170Z,93.13
2022-11-24T17:55:19.576Z,93.07
2022-11-24T17:57:46.119Z,93.22
2022-11-24T18:00:13.209Z,93.45
2022-11-24T18:02:39.681Z,92.17
2022-11-24T18:05:06.375Z,92.42
2022-11-24T18:07:35.293Z,93.62
2022-11-24T18:10:01.717Z,94.02
2022-11-24T18:12:28.108Z,94.06
2022-11-24T18:14:54.509Z,94.58
2022-11-24T18:17:20.891Z,94.33
2022-11-24T18:19:47.339Z,93.10
2022-11-24T18:22:13.711Z,94.37
2022-11-24T18:24:40.472Z,95.13
2022-11-24T18:27:07.015Z,94.17
2022-11-24T18:29:33.423Z,93.64
2022-11-24T18:32:00.248Z,94.89
2022-11-24T18:34:27.059Z,94.83
2022-11-24T18:36:53.473Z,95.02
2022-11-24T18:39:22.013Z,94.98
2022-11-24T18:41:48.448Z,95.78
2022-11-24T18:44:14.899Z,94.79
2022-11-24T18:46:41.372Z,94.37
2022-11-24T18:49:07.894Z,95.20
2022-11-24T18:51:34.356Z,94.98
2022-11-24T18:54:02.850Z,95.69
2022-11-24T18:56:29.440Z,95.19
2022-11-24T18:58:56.357Z,95.46
2022-11-24T19:01:27.809Z,95.26
2022-11-24T19:03:56.222Z,95.33
2022-11-24T19:06:24.354Z,95.88
2022-11-24T19:08:53.328Z,96.19
2022-11-24T19:11:21.554Z,96.15
2022-11-24T19:13:48.987Z,95.22
2022-11-24T19:16:16.995Z,94.86
2022-11-24T19:18:46.474Z,95.61
2022-11-24T19:21:17.692Z,96.10
2022-11-24T19:23:44.125Z,96.92
2022-11-24T19:26:10.634Z,96.49
2022-11-24T19:28:37.066Z,96.24
2022-11-24T19:31:06.021Z,96.38
2022-11-24T19:33:33.026Z,96.08
2022-11-24T19:36:04.784Z,96.21
2022-11-24T19:38:33.071Z,96.78
2022-11-24T19:41:04.015Z,96.05
2022-11-24T19:43:30.840Z,96.38
2022-11-24T19:46:05.647Z,96.53
2022-11-24T19:48:33.136Z,96.33
2022-11-24T19:51:04.851Z,96.02
2022-11-24T19:53:31.984Z,96.47
2022-11-24T19:56:05.177Z,96.50
2022-11-24T19:58:31.963Z,95.80
2022-11-24T20:01:24.656Z,97.04
2022-11-24T20:03:59.032Z,95.72
2022-11-24T20:06:26.980Z,95.22
2022-11-24T20:08:53.411Z,95.49
2022-11-24T20:11:20.941Z,96.95
2022-11-24T20:13:48.369Z,96.04
2022-11-24T20:16:20.873Z,95.91
2022-11-24T20:18:47.791Z,96.61
2022-11-24T20:21:21.905Z,96.80
2022-11-24T20:23:56.890Z,95.74
2022-11-24T20:26:24.708Z,96.09
2022-11-24T20:28:53.074Z,95.96
2022-11-24T20:31:22.324Z,96.00
2022-11-24T20:33:49.032Z,95.48
2022-11-24T20:36:18.276Z,95.33
2022-11-24T20:38:45.622Z,95.74
2022-11-24T20:41:23.681Z,95.92
2022-11-24T20:43:51.229Z,95.96
2022-11-24T20:46:20.146Z,96.50
2022-11-24T20:48:46.560Z,96.18
2022-11-24T20:51:15.796Z,95.60
2022-11-24T20:53:42.271Z,94.86
2022-11-24T20:56:11.704Z,95.67
2022-11-24T20:58:38.617Z,95.19
2022-11-24T21:01:13.946Z,96.32
2022-11-24T21:03:43.344Z,97.94
2022-11-24T21:06:10.868Z,98.32
2022-11-24T21:08:39.116Z,97.43
2022-11-24T21:11:07.057Z,97.33
2022-11-24T21:13:34.602Z,97.13
2022-11-24T21:16:10.514Z,99.08
2022-11-24T21:18:36.943Z,97.84
2022-11-24T21:21:03.418Z,98.32
2022-11-24T21:23:29.844Z,97.95
2022-11-24T21:26:05.121Z,98.72
2022-11-24T21:28:32.855Z,99.02
2022-11-24T21:31:04.765Z,99.45
2022-11-24T21:33:31.267Z,99.18
2022-11-24T21:36:05.439Z,99.64
2022-11-24T21:38:32.234Z,100.00
2022-11-24T21:41:08.833Z,100.00
2022-11-24T21:43:35.830Z,100.00
2022-11-24T21:46:02.933Z,99.96
2022-11-24T21:48:30.730Z,100.00
2022-11-24T21:51:02.684Z,100.00
2022-11-24T21:53:34.679Z,99.92
2022-11-24T21:56:03.422Z,100.00
2022-11-24T21:58:29.846Z,100.00
2022-11-24T22:01:02.906Z,100.00
2022-11-24T22:03:29.469Z,100.00
2022-11-24T22:05:57.190Z,100.00
2022-11-24T22:08:24.536Z,100.00
2022-11-24T22:10:51.206Z,100.00
2022-11-24T22:13:17.629Z,100.00
2022-11-24T22:15:44.068Z,100.00
2022-11-24T22:18:10.620Z,100.00
2022-11-24T22:20:37.085Z,100.00
2022-11-24T22:23:03.606Z,100.00
2022-11-24T22:25:30.033Z,100.00
2022-11-24T22:27:57.915Z,100.00
2022-11-24T22:30:24.352Z,100.00
2022-11-24T22:32:54.083Z,100.00
2022-11-24T22:35:20.857Z,100.00
2022-11-24T22:37:47.273Z,100.00
2022-11-24T22:40:13.682Z,100.00
2022-11-24T22:42:40.087Z,100.00
2022-11-24T22:45:07.282Z,100.00
2022-11-24T22:47:36.535Z,100.00
2022-11-24T22:50:03.100Z,100.00
2022-11-24T22:52:29.523Z,100.00
2022-11-24T22:54:55.958Z,100.00
2022-11-24T22:57:22.328Z,100.00
2022-11-24T22:59:48.791Z,100.00
2022-11-24T23:02:15.174Z,100.00
2022-11-24T23:04:41.607Z,100.00
2022-11-24T23:07:08.182Z,100.00
2022-11-24T23:09:34.612Z,100.00
2022-11-24T23:12:01.051Z,100.00
2022-11-24T23:14:28.772Z,100.00
2022-11-24T23:16:55.261Z,100.00
2022-11-24T23:19:21.638Z,100.00
2022-11-24T23:21:48.244Z,100.00
2022-11-24T23:24:14.636Z,100.00
2022-11-24T23:26:41.531Z,100.00
2022-11-24T23:29:08.432Z,100.00
2022-11-24T23:31:37.703Z,100.00
2022-11-24T23:34:04.449Z,100.00
2022-11-24T23:36:31.362Z,100.00
2022-11-24T23:39:03.067Z,100.00
2022-11-24T23:41:30.118Z,100.00
2022-11-24T23:43:56.510Z,100.00
2022-11-24T23:46:27.217Z,100.00
2022-11-24T23:48:54.518Z,100.00
2022-11-24T23:51:26.737Z,100.00
2022-11-24T23:53:54.036Z,100.00
2022-11-24T23:56:22.558Z,100.00
2022-11-24T23:58:49.300Z,100.00
